Hlavní strana
METAR-TAF:

METAR-TAF

Letiště :

Ouagadougou, Burkina Faso

zeměpisná šířka: 12-21N, zeměpisná délka: 001-31W, výška: 316 m

Aktuální stav počasí

Zpráva byla vytvořena před 37 minutami, v 06:00 UTC
Severoseverovýchodní vítr 4 kt
Teplota 17°C
Vlhkost vzduchu 32%
Tlak 1012 hPa
Viditelnost 10 km a více
Žádná oblačnost pod 1500 m, nevyskytují se cumulonimby.

METAR: DFFD 240600Z 02004KT CAVOK 17/00 Q1012 NOSIG

Čas: 06:37 (06:37 UTC)

Předpověď počasí

Zpráva byla vytvořena před 1 hodinou a 37 minutami, v 05:00 UTC
Předpověď platná od 24 v 06 UTC do 25 v 12 UTC
Východoseverovýchodní vítr 10 kt
Viditelnost: 8000 m
Dočasný
od 24 v 06 UTC do 24 v 09 UTC
Viditelnost: 4000 m
zákal

TAF: DFFD 240500Z 2406/2512 06010KT 8000 NSC TEMPO 2406/2409 4000 HZ

Stav a předpovědi počasí z více než 4 000 letišť (zprávy METAR a TAF).

Červené a žluté tečky na mapě představují dostupné meteorologické stanice.

Když kurzor umístíte na tečku, zobrazí se název stanice.

Pak kliknutím zobrazíte stav a předpověď počasí.

Chcete-li změnit mapu, kliknutím na zelené tlačítko se znaménkem +mapu přiblížíte, kliknutím na zelené tlačítko se znaménkem – mapu oddálíte a kliknutím na zelené šipky přejdete na sousední mapy.


METAR-TAF: